sensor_id;sensor_type;location;lat;lon;timestamp;pressure;altitude;pressure_sealevel;temperature;humidity
78373;BME280;67656;52.074;4.758;2023-04-29T00:04:23;101609.56;;;8.17;100.00
78373;BME280;67656;52.074;4.758;2023-04-29T00:09:23;101620.91;;;8.22;100.00
78373;BME280;67656;52.074;4.758;2023-04-29T00:14:24;101626.22;;;8.19;100.00
78373;BME280;67656;52.074;4.758;2023-04-29T00:19:24;101621.84;;;8.13;100.00
78373;BME280;67656;52.074;4.758;2023-04-29T00:24:25;101623.59;;;8.14;100.00
78373;BME280;67656;52.074;4.758;2023-04-29T00:29:25;101621.84;;;8.13;100.00
78373;BME280;67656;52.074;4.758;2023-04-29T00:34:25;101641.09;;;8.18;100.00
78373;BME280;67656;52.074;4.758;2023-04-29T00:39:26;101635.91;;;8.04;100.00
78373;BME280;67656;52.074;4.758;2023-04-29T00:44:26;101636.78;;;8.05;100.00
78373;BME280;67656;52.074;4.758;2023-04-29T00:49:26;101639.47;;;7.98;100.00
78373;BME280;67656;52.074;4.758;2023-04-29T00:54:27;101643.81;;;8.01;100.00
78373;BME280;67656;52.074;4.758;2023-04-29T00:59:28;101647.38;;;7.94;100.00
78373;BME280;67656;52.074;4.758;2023-04-29T01:04:29;101650.00;;;7.91;100.00
78373;BME280;67656;52.074;4.758;2023-04-29T01:14:42;101655.22;;;7.97;100.00
78373;BME280;67656;52.074;4.758;2023-04-29T01:19:50;101665.69;;;8.02;100.00
78373;BME280;67656;52.074;4.758;2023-04-29T01:24:52;101667.44;;;8.06;100.00
78373;BME280;67656;52.074;4.758;2023-04-29T01:35:44;101673.59;;;8.00;100.00
78373;BME280;67656;52.074;4.758;2023-04-29T01:41:01;101680.63;;;7.96;100.00
78373;BME280;67656;52.074;4.758;2023-04-29T01:46:05;101683.25;;;7.99;100.00
78373;BME280;67656;52.074;4.758;2023-04-29T01:51:08;101684.13;;;8.06;100.00
78373;BME280;67656;52.074;4.758;2023-04-29T01:56:08;101692.00;;;8.05;100.00
78373;BME280;67656;52.074;4.758;2023-04-29T02:01:29;101673.59;;;8.06;100.00
78373;BME280;67656;52.074;4.758;2023-04-29T02:06:29;101681.50;;;8.06;100.00
78373;BME280;67656;52.074;4.758;2023-04-29T02:11:33;101689.38;;;8.06;100.00
78373;BME280;67656;52.074;4.758;2023-04-29T02:16:35;101694.63;;;8.05;100.00
78373;BME280;67656;52.074;4.758;2023-04-29T02:21:38;101706.00;;;8.07;100.00
78373;BME280;67656;52.074;4.758;2023-04-29T02:26:39;101707.75;;;8.05;100.00
78373;BME280;67656;52.074;4.758;2023-04-29T02:31:39;101712.16;;;8.03;100.00
78373;BME280;67656;52.074;4.758;2023-04-29T02:36:40;101718.28;;;8.03;100.00
78373;BME280;67656;52.074;4.758;2023-04-29T02:41:40;101723.53;;;8.05;100.00
78373;BME280;67656;52.074;4.758;2023-04-29T02:46:40;101720.03;;;8.06;100.00
78373;BME280;67656;52.074;4.758;2023-04-29T02:51:41;101735.81;;;8.03;100.00
78373;BME280;67656;52.074;4.758;2023-04-29T02:56:42;101734.09;;;7.98;100.00
78373;BME280;67656;52.074;4.758;2023-04-29T03:01:42;101742.84;;;7.97;100.00
78373;BME280;67656;52.074;4.758;2023-04-29T03:06:43;101747.22;;;7.97;100.00
78373;BME280;67656;52.074;4.758;2023-04-29T03:11:45;101755.13;;;7.98;100.00
78373;BME280;67656;52.074;4.758;2023-04-29T03:16:45;101752.50;;;7.95;100.00
78373;BME280;67656;52.074;4.758;2023-04-29T03:21:46;101756.88;;;7.99;100.00
78373;BME280;67656;52.074;4.758;2023-04-29T03:26:46;101752.50;;;7.94;100.00
78373;BME280;67656;52.074;4.758;2023-04-29T03:31:47;101756.84;;;7.98;100.00
78373;BME280;67656;52.074;4.758;2023-04-29T03:36:48;101760.38;;;7.95;100.00
78373;BME280;67656;52.074;4.758;2023-04-29T03:41:48;101758.63;;;7.97;100.00
78373;BME280;67656;52.074;4.758;2023-04-29T03:46:48;101762.97;;;8.00;100.00
78373;BME280;67656;52.074;4.758;2023-04-29T03:51:49;101763.88;;;7.97;100.00
78373;BME280;67656;52.074;4.758;2023-04-29T03:56:50;101769.09;;;8.00;100.00
78373;BME280;67656;52.074;4.758;2023-04-29T04:01:51;101772.59;;;8.03;100.00
78373;BME280;67656;52.074;4.758;2023-04-29T04:06:52;101777.88;;;8.06;100.00
78373;BME280;67656;52.074;4.758;2023-04-29T04:11:57;101784.88;;;8.04;100.00
78373;BME280;67656;52.074;4.758;2023-04-29T04:16:58;101783.13;;;8.03;100.00
78373;BME280;67656;52.074;4.758;2023-04-29T04:21:58;101802.44;;;7.98;100.00
78373;BME280;67656;52.074;4.758;2023-04-29T04:26:59;101799.78;;;8.00;100.00
78373;BME280;67656;52.074;4.758;2023-04-29T04:32:07;101809.44;;;7.99;100.00
78373;BME280;67656;52.074;4.758;2023-04-29T04:37:08;101807.69;;;7.98;100.00
78373;BME280;67656;52.074;4.758;2023-04-29T04:42:10;101818.19;;;7.98;100.00
78373;BME280;67656;52.074;4.758;2023-04-29T04:47:10;101823.44;;;8.05;100.00
78373;BME280;67656;52.074;4.758;2023-04-29T04:52:22;101835.72;;;7.99;100.00
78373;BME280;67656;52.074;4.758;2023-04-29T04:57:33;101849.72;;;8.02;100.00
78373;BME280;67656;52.074;4.758;2023-04-29T05:02:34;101854.09;;;8.06;100.00
78373;BME280;67656;52.074;4.758;2023-04-29T05:07:35;101860.25;;;8.08;100.00
78373;BME280;67656;52.074;4.758;2023-04-29T05:12:38;101868.97;;;8.13;100.00
78373;BME280;67656;52.074;4.758;2023-04-29T05:17:38;101869.88;;;8.18;100.00
78373;BME280;67656;52.074;4.758;2023-04-29T05:22:39;101881.28;;;8.23;100.00
78373;BME280;67656;52.074;4.758;2023-04-29T05:27:41;101878.63;;;8.23;100.00
78373;BME280;67656;52.074;4.758;2023-04-29T05:32:45;101889.16;;;8.28;100.00
78373;BME280;67656;52.074;4.758;2023-04-29T05:37:48;101900.53;;;8.32;100.00
78373;BME280;67656;52.074;4.758;2023-04-29T05:42:58;101897.88;;;8.33;100.00
78373;BME280;67656;52.074;4.758;2023-04-29T05:47:58;101904.91;;;8.37;100.00
78373;BME280;67656;52.074;4.758;2023-04-29T05:52:59;101907.53;;;8.42;100.00
78373;BME280;67656;52.074;4.758;2023-04-29T05:57:59;101905.78;;;8.56;100.00
78373;BME280;67656;52.074;4.758;2023-04-29T06:03:00;101918.06;;;8.60;100.00
78373;BME280;67656;52.074;4.758;2023-04-29T06:08:01;101923.25;;;8.79;100.00
78373;BME280;67656;52.074;4.758;2023-04-29T06:13:08;101930.28;;;8.82;100.00
78373;BME280;67656;52.074;4.758;2023-04-29T06:18:08;101938.16;;;8.77;100.00
78373;BME280;67656;52.074;4.758;2023-04-29T06:23:09;101946.03;;;8.93;100.00
78373;BME280;67656;52.074;4.758;2023-04-29T06:28:09;101953.00;;;9.12;100.00
78373;BME280;67656;52.074;4.758;2023-04-29T06:33:10;101956.47;;;9.14;100.00
78373;BME280;67656;52.074;4.758;2023-04-29T06:38:11;101955.50;;;9.35;100.00
78373;BME280;67656;52.074;4.758;2023-04-29T06:43:29;101964.72;;;10.06;100.00
78373;BME280;67656;52.074;4.758;2023-04-29T06:48:49;101957.31;;;11.28;100.00
78373;BME280;67656;52.074;4.758;2023-04-29T06:53:49;101968.19;;;11.71;100.00
78373;BME280;67656;52.074;4.758;2023-04-29T06:58:53;101972.81;;;11.58;100.00
78373;BME280;67656;52.074;4.758;2023-04-29T07:03:54;101985.31;;;11.46;100.00
78373;BME280;67656;52.074;4.758;2023-04-29T07:08:57;101989.00;;;11.95;100.00
78373;BME280;67656;52.074;4.758;2023-04-29T07:13:57;101990.72;;;12.00;100.00
78373;BME280;67656;52.074;4.758;2023-04-29T07:18:58;101986.31;;;13.00;100.00
78373;BME280;67656;52.074;4.758;2023-04-29T07:23:58;101983.75;;;12.96;100.00
78373;BME280;67656;52.074;4.758;2023-04-29T07:28:58;102000.38;;;12.55;100.00
78373;BME280;67656;52.074;4.758;2023-04-29T07:33:59;102012.09;;;13.36;100.00
78373;BME280;67656;52.074;4.758;2023-04-29T07:38:59;102004.97;;;14.18;100.00
78373;BME280;67656;52.074;4.758;2023-04-29T07:44:00;102015.53;;;14.21;100.00
78373;BME280;67656;52.074;4.758;2023-04-29T07:49:00;102014.88;;;14.11;100.00
78373;BME280;67656;52.074;4.758;2023-04-29T07:54:01;102023.22;;;14.68;100.00
78373;BME280;67656;52.074;4.758;2023-04-29T07:59:01;102013.09;;;14.83;100.00
78373;BME280;67656;52.074;4.758;2023-04-29T08:04:02;102015.47;;;14.94;100.00
78373;BME280;67656;52.074;4.758;2023-04-29T08:09:03;102019.81;;;14.27;100.00
78373;BME280;67656;52.074;4.758;2023-04-29T08:14:03;102025.72;;;14.02;100.00
78373;BME280;67656;52.074;4.758;2023-04-29T08:19:03;102032.09;;;13.09;100.00
78373;BME280;67656;52.074;4.758;2023-04-29T08:24:04;102022.91;;;13.69;100.00
78373;BME280;67656;52.074;4.758;2023-04-29T08:29:04;102017.19;;;13.48;100.00
78373;BME280;67656;52.074;4.758;2023-04-29T08:34:04;102022.09;;;14.05;100.00
78373;BME280;67656;52.074;4.758;2023-04-29T08:39:05;102040.31;;;13.82;100.00
78373;BME280;67656;52.074;4.758;2023-04-29T08:44:05;102040.56;;;13.28;100.00
78373;BME280;67656;52.074;4.758;2023-04-29T08:49:06;102049.56;;;14.04;100.00
78373;BME280;67656;52.074;4.758;2023-04-29T08:54:06;102055.78;;;12.68;100.00
78373;BME280;67656;52.074;4.758;2023-04-29T08:59:08;102057.09;;;14.58;100.00
78373;BME280;67656;52.074;4.758;2023-04-29T09:04:46;102063.16;;;13.00;100.00
78373;BME280;67656;52.074;4.758;2023-04-29T09:09:47;102061.41;;;13.46;100.00
78373;BME280;67656;52.074;4.758;2023-04-29T09:14:48;102061.63;;;12.88;100.00
78373;BME280;67656;52.074;4.758;2023-04-29T09:19:49;102052.13;;;15.14;100.00
78373;BME280;67656;52.074;4.758;2023-04-29T09:24:49;102060.81;;;14.51;100.00
78373;BME280;67656;52.074;4.758;2023-04-29T09:29:59;102072.97;;;13.42;100.00
78373;BME280;67656;52.074;4.758;2023-04-29T09:35:24;102072.06;;;13.43;100.00
78373;BME280;67656;52.074;4.758;2023-04-29T09:40:32;102072.41;;;14.11;100.00
78373;BME280;67656;52.074;4.758;2023-04-29T09:45:37;102075.66;;;15.59;100.00
78373;BME280;67656;52.074;4.758;2023-04-29T09:50:38;102072.81;;;15.95;100.00
78373;BME280;67656;52.074;4.758;2023-04-29T09:55:58;102070.53;;;14.88;100.00
78373;BME280;67656;52.074;4.758;2023-04-29T10:00:58;102077.03;;;15.73;100.00
78373;BME280;67656;52.074;4.758;2023-04-29T10:06:00;102076.81;;;16.66;100.00
78373;BME280;67656;52.074;4.758;2023-04-29T10:11:02;102070.63;;;16.91;90.91
78373;BME280;67656;52.074;4.758;2023-04-29T10:21:28;102081.19;;;17.68;80.21
78373;BME280;67656;52.074;4.758;2023-04-29T10:26:29;102084.41;;;16.77;87.19
78373;BME280;67656;52.074;4.758;2023-04-29T10:31:30;102086.22;;;17.03;85.04
78373;BME280;67656;52.074;4.758;2023-04-29T10:36:32;102094.41;;;15.56;100.00
78373;BME280;67656;52.074;4.758;2023-04-29T10:41:42;102089.13;;;14.52;100.00
78373;BME280;67656;52.074;4.758;2023-04-29T10:46:43;102093.50;;;15.24;100.00
78373;BME280;67656;52.074;4.758;2023-04-29T10:51:44;102087.22;;;15.58;97.46
78373;BME280;67656;52.074;4.758;2023-04-29T10:56:52;102089.22;;;16.67;90.20
78373;BME280;67656;52.074;4.758;2023-04-29T11:01:52;102083.66;;;16.73;95.04
78373;BME280;67656;52.074;4.758;2023-04-29T11:06:56;102090.81;;;16.99;86.10
78373;BME280;67656;52.074;4.758;2023-04-29T11:12:02;102094.41;;;17.47;78.77
78373;BME280;67656;52.074;4.758;2023-04-29T11:17:06;102094.63;;;18.35;81.88
78373;BME280;67656;52.074;4.758;2023-04-29T11:27:07;102103.56;;;18.11;69.86
78373;BME280;67656;52.074;4.758;2023-04-29T11:32:07;102095.47;;;16.66;76.88
78373;BME280;67656;52.074;4.758;2023-04-29T11:37:08;102093.19;;;17.07;79.54
78373;BME280;67656;52.074;4.758;2023-04-29T11:42:09;102095.38;;;18.38;70.35
78373;BME280;67656;52.074;4.758;2023-04-29T11:47:09;102095.91;;;17.78;73.34
78373;BME280;67656;52.074;4.758;2023-04-29T11:52:10;102104.22;;;18.61;70.79
78373;BME280;67656;52.074;4.758;2023-04-29T11:57:10;102089.31;;;17.65;82.54
78373;BME280;67656;52.074;4.758;2023-04-29T12:02:11;102101.50;;;16.44;89.69
78373;BME280;67656;52.074;4.758;2023-04-29T12:07:15;102100.81;;;17.18;86.01
78373;BME280;67656;52.074;4.758;2023-04-29T12:12:16;102104.47;;;16.88;92.39
78373;BME280;67656;52.074;4.758;2023-04-29T12:17:16;102098.06;;;16.94;86.76
78373;BME280;67656;52.074;4.758;2023-04-29T12:22:18;102101.63;;;16.68;86.87
78373;BME280;67656;52.074;4.758;2023-04-29T12:27:19;102095.09;;;17.29;82.44
78373;BME280;67656;52.074;4.758;2023-04-29T12:32:23;102101.97;;;16.84;91.53
78373;BME280;67656;52.074;4.758;2023-04-29T12:37:24;102099.72;;;17.24;84.88
78373;BME280;67656;52.074;4.758;2023-04-29T12:42:31;102106.97;;;17.69;78.23
78373;BME280;67656;52.074;4.758;2023-04-29T12:47:32;102106.63;;;17.29;82.46
78373;BME280;67656;52.074;4.758;2023-04-29T12:52:32;102111.91;;;17.31;85.54
78373;BME280;67656;52.074;4.758;2023-04-29T12:57:32;102104.94;;;17.76;76.35
78373;BME280;67656;52.074;4.758;2023-04-29T13:02:33;102113.53;;;17.35;83.17
78373;BME280;67656;52.074;4.758;2023-04-29T13:07:33;102116.38;;;18.03;77.63
78373;BME280;67656;52.074;4.758;2023-04-29T13:12:33;102120.78;;;17.80;74.52
78373;BME280;67656;52.074;4.758;2023-04-29T13:17:34;102117.09;;;17.35;78.79
78373;BME280;67656;52.074;4.758;2023-04-29T13:22:35;102123.63;;;17.76;76.16
78373;BME280;67656;52.074;4.758;2023-04-29T13:27:35;102123.06;;;17.42;83.21
78373;BME280;67656;52.074;4.758;2023-04-29T13:32:35;102125.94;;;17.61;76.72
78373;BME280;67656;52.074;4.758;2023-04-29T13:37:36;102120.84;;;17.30;90.00
78373;BME280;67656;52.074;4.758;2023-04-29T13:42:36;102117.75;;;16.36;100.00
78373;BME280;67656;52.074;4.758;2023-04-29T13:47:36;102115.06;;;16.90;83.14
78373;BME280;67656;52.074;4.758;2023-04-29T13:52:37;102114.31;;;16.59;90.50
78373;BME280;67656;52.074;4.758;2023-04-29T13:57:37;102128.56;;;16.02;92.89
78373;BME280;67656;52.074;4.758;2023-04-29T14:02:37;102133.22;;;16.23;88.09
78373;BME280;67656;52.074;4.758;2023-04-29T14:07:37;102137.78;;;15.58;96.16
78373;BME280;67656;52.074;4.758;2023-04-29T14:12:38;102144.19;;;15.51;100.00
78373;BME280;67656;52.074;4.758;2023-04-29T14:17:38;102150.06;;;14.96;100.00
78373;BME280;67656;52.074;4.758;2023-04-29T14:28:14;102142.47;;;15.15;100.00
78373;BME280;67656;52.074;4.758;2023-04-29T14:33:14;102151.75;;;15.66;100.00
78373;BME280;67656;52.074;4.758;2023-04-29T14:38:14;102138.44;;;15.98;100.00
78373;BME280;67656;52.074;4.758;2023-04-29T14:43:15;102150.22;;;17.03;98.35
78373;BME280;67656;52.074;4.758;2023-04-29T14:48:15;102142.88;;;16.27;100.00
78373;BME280;67656;52.074;4.758;2023-04-29T14:53:15;102145.84;;;16.47;100.00
78373;BME280;67656;52.074;4.758;2023-04-29T14:58:16;102153.66;;;16.51;100.00
78373;BME280;67656;52.074;4.758;2023-04-29T15:03:19;102156.78;;;17.19;95.95
78373;BME280;67656;52.074;4.758;2023-04-29T15:08:19;102153.75;;;17.54;92.71
78373;BME280;67656;52.074;4.758;2023-04-29T15:13:19;102159.91;;;17.06;84.19
78373;BME280;67656;52.074;4.758;2023-04-29T15:18:20;102166.19;;;16.76;85.87
78373;BME280;67656;52.074;4.758;2023-04-29T15:24:04;102168.97;;;16.73;85.85
78373;BME280;67656;52.074;4.758;2023-04-29T15:34:59;102165.47;;;16.14;91.41
78373;BME280;67656;52.074;4.758;2023-04-29T15:40:00;102169.13;;;16.40;89.46
78373;BME280;67656;52.074;4.758;2023-04-29T15:45:01;102171.81;;;16.10;84.68
78373;BME280;67656;52.074;4.758;2023-04-29T15:50:01;102178.13;;;15.43;93.46
78373;BME280;67656;52.074;4.758;2023-04-29T15:55:01;102173.13;;;15.30;94.33
78373;BME280;67656;52.074;4.758;2023-04-29T16:00:02;102184.38;;;15.07;92.29
78373;BME280;67656;52.074;4.758;2023-04-29T16:05:05;102186.59;;;15.57;83.78
78373;BME280;67656;52.074;4.758;2023-04-29T16:10:06;102196.41;;;15.55;85.74
78373;BME280;67656;52.074;4.758;2023-04-29T16:15:07;102200.72;;;15.59;80.75
78373;BME280;67656;52.074;4.758;2023-04-29T16:20:07;102203.81;;;15.77;79.70
78373;BME280;67656;52.074;4.758;2023-04-29T16:25:08;102202.81;;;15.81;73.98
78373;BME280;67656;52.074;4.758;2023-04-29T16:30:09;102202.88;;;15.45;83.93
78373;BME280;67656;52.074;4.758;2023-04-29T16:35:09;102210.16;;;15.38;83.67
78373;BME280;67656;52.074;4.758;2023-04-29T16:40:10;102205.75;;;15.02;80.73
78373;BME280;67656;52.074;4.758;2023-04-29T16:45:10;102206.97;;;14.87;82.22
78373;BME280;67656;52.074;4.758;2023-04-29T16:50:11;102200.75;;;14.90;84.88
78373;BME280;67656;52.074;4.758;2023-04-29T16:55:11;102198.94;;;14.92;82.66
78373;BME280;67656;52.074;4.758;2023-04-29T17:00:12;102196.69;;;14.73;81.70
78373;BME280;67656;52.074;4.758;2023-04-29T17:05:12;102203.69;;;14.78;86.85
78373;BME280;67656;52.074;4.758;2023-04-29T17:10:13;102194.75;;;14.42;85.83
78373;BME280;67656;52.074;4.758;2023-04-29T17:15:13;102200.34;;;14.28;80.95
78373;BME280;67656;52.074;4.758;2023-04-29T17:20:13;102207.72;;;14.16;84.38
78373;BME280;67656;52.074;4.758;2023-04-29T17:25:14;102204.81;;;13.82;86.31
78373;BME280;67656;52.074;4.758;2023-04-29T17:30:14;102203.91;;;13.85;90.20
78373;BME280;67656;52.074;4.758;2023-04-29T17:35:14;102211.81;;;13.40;100.00
78373;BME280;67656;52.074;4.758;2023-04-29T17:40:15;102214.91;;;13.13;100.00
78373;BME280;67656;52.074;4.758;2023-04-29T17:45:15;102219.78;;;12.83;100.00
78373;BME280;67656;52.074;4.758;2023-04-29T17:50:16;102226.53;;;12.42;100.00
78373;BME280;67656;52.074;4.758;2023-04-29T17:55:16;102221.38;;;12.33;100.00
78373;BME280;67656;52.074;4.758;2023-04-29T18:00:16;102235.91;;;11.99;100.00
78373;BME280;67656;52.074;4.758;2023-04-29T18:05:18;102234.41;;;11.72;100.00
78373;BME280;67656;52.074;4.758;2023-04-29T18:10:19;102242.56;;;11.50;100.00
78373;BME280;67656;52.074;4.758;2023-04-29T18:15:19;102251.59;;;11.27;100.00
78373;BME280;67656;52.074;4.758;2023-04-29T18:20:20;102245.53;;;11.13;100.00
78373;BME280;67656;52.074;4.758;2023-04-29T18:25:20;102249.16;;;10.99;100.00
78373;BME280;67656;52.074;4.758;2023-04-29T18:30:20;102247.50;;;10.83;100.00
78373;BME280;67656;52.074;4.758;2023-04-29T18:35:21;102251.09;;;10.66;100.00
78373;BME280;67656;52.074;4.758;2023-04-29T18:40:21;102251.22;;;10.48;100.00
78373;BME280;67656;52.074;4.758;2023-04-29T18:45:21;102260.03;;;10.34;100.00
78373;BME280;67656;52.074;4.758;2023-04-29T18:50:22;102267.13;;;10.17;100.00
78373;BME280;67656;52.074;4.758;2023-04-29T18:55:22;102257.53;;;9.97;100.00
78373;BME280;67656;52.074;4.758;2023-04-29T19:00:22;102268.09;;;9.78;100.00
78373;BME280;67656;52.074;4.758;2023-04-29T19:05:23;102274.31;;;9.62;100.00
78373;BME280;67656;52.074;4.758;2023-04-29T19:10:23;102281.31;;;9.44;100.00
78373;BME280;67656;52.074;4.758;2023-04-29T19:15:23;102286.59;;;9.32;100.00
78373;BME280;67656;52.074;4.758;2023-04-29T19:20:24;102291.84;;;9.16;100.00
78373;BME280;67656;52.074;4.758;2023-04-29T19:25:24;102290.09;;;9.00;100.00
78373;BME280;67656;52.074;4.758;2023-04-29T19:30:24;102312.88;;;8.95;100.00
78373;BME280;67656;52.074;4.758;2023-04-29T19:35:25;102311.09;;;8.75;100.00
78373;BME280;67656;52.074;4.758;2023-04-29T19:40:27;102319.81;;;8.62;100.00
78373;BME280;67656;52.074;4.758;2023-04-29T19:45:30;102322.31;;;8.44;100.00
78373;BME280;67656;52.074;4.758;2023-04-29T19:50:31;102323.09;;;8.26;100.00
78373;BME280;67656;52.074;4.758;2023-04-29T19:55:31;102331.88;;;8.22;100.00
78373;BME280;67656;52.074;4.758;2023-04-29T20:00:32;102340.53;;;8.10;100.00
78373;BME280;67656;52.074;4.758;2023-04-29T20:05:32;102347.56;;;8.10;100.00
78373;BME280;67656;52.074;4.758;2023-04-29T20:10:33;102358.06;;;8.07;100.00
78373;BME280;67656;52.074;4.758;2023-04-29T20:15:33;102361.50;;;7.96;100.00
78373;BME280;67656;52.074;4.758;2023-04-29T20:20:34;102358.81;;;7.90;100.00
78373;BME280;67656;52.074;4.758;2023-04-29T20:25:34;102359.63;;;7.83;100.00
78373;BME280;67656;52.074;4.758;2023-04-29T20:30:35;102355.22;;;7.77;100.00
78373;BME280;67656;52.074;4.758;2023-04-29T20:35:35;102358.59;;;7.65;100.00
78373;BME280;67656;52.074;4.758;2023-04-29T20:40:35;102366.41;;;7.58;100.00
78373;BME280;67656;52.074;4.758;2023-04-29T20:45:36;102377.78;;;7.57;100.00
78373;BME280;67656;52.074;4.758;2023-04-29T20:50:36;102383.09;;;7.60;100.00
78373;BME280;67656;52.074;4.758;2023-04-29T20:55:36;102376.94;;;7.56;100.00
78373;BME280;67656;52.074;4.758;2023-04-29T21:00:37;102373.28;;;7.42;100.00
78373;BME280;67656;52.074;4.758;2023-04-29T21:05:37;102380.25;;;7.40;100.00
78373;BME280;67656;52.074;4.758;2023-04-29T21:10:38;102387.19;;;7.31;100.00
78373;BME280;67656;52.074;4.758;2023-04-29T21:15:38;102388.78;;;7.15;100.00
78373;BME280;67656;52.074;4.758;2023-04-29T21:20:38;102393.94;;;7.07;100.00
78373;BME280;67656;52.074;4.758;2023-04-29T21:25:39;102397.44;;;7.05;100.00
78373;BME280;67656;52.074;4.758;2023-04-29T21:30:39;102394.66;;;6.94;100.00
78373;BME280;67656;52.074;4.758;2023-04-29T21:35:39;102392.03;;;6.93;100.00
78373;BME280;67656;52.074;4.758;2023-04-29T21:40:40;102404.28;;;6.95;100.00
78373;BME280;67656;52.074;4.758;2023-04-29T21:45:41;102400.06;;;7.05;100.00
78373;BME280;67656;52.074;4.758;2023-04-29T21:50:43;102398.91;;;6.83;100.00
78373;BME280;67656;52.074;4.758;2023-04-29T21:55:43;102399.81;;;6.86;100.00
78373;BME280;67656;52.074;4.758;2023-04-29T22:00:44;102403.28;;;6.84;100.00
78373;BME280;67656;52.074;4.758;2023-04-29T22:05:44;102393.66;;;6.83;100.00
78373;BME280;67656;52.074;4.758;2023-04-29T22:10:44;102407.59;;;6.79;100.00
78373;BME280;67656;52.074;4.758;2023-04-29T22:15:45;102410.22;;;6.79;100.00
78373;BME280;67656;52.074;4.758;2023-04-29T22:20:45;102416.41;;;6.84;100.00
78373;BME280;67656;52.074;4.758;2023-04-29T22:25:45;102415.38;;;6.72;100.00
78373;BME280;67656;52.074;4.758;2023-04-29T22:30:46;102419.69;;;6.67;100.00
78373;BME280;67656;52.074;4.758;2023-04-29T22:35:46;102416.81;;;6.50;100.00
78373;BME280;67656;52.074;4.758;2023-04-29T22:40:50;102420.97;;;6.34;100.00
78373;BME280;67656;52.074;4.758;2023-04-29T22:45:54;102428.78;;;6.33;100.00
78373;BME280;67656;52.074;4.758;2023-04-29T22:50:56;102427.75;;;6.20;100.00
78373;BME280;67656;52.074;4.758;2023-04-29T22:55:58;102426.72;;;6.11;100.00
78373;BME280;67656;52.074;4.758;2023-04-29T23:00:58;102426.78;;;6.14;100.00
78373;BME280;67656;52.074;4.758;2023-04-29T23:05:59;102431.88;;;6.07;100.00
78373;BME280;67656;52.074;4.758;2023-04-29T23:11:00;102421.94;;;5.89;100.00
78373;BME280;67656;52.074;4.758;2023-04-29T23:16:00;102419.97;;;5.75;100.00
78373;BME280;67656;52.074;4.758;2023-04-29T23:21:01;102429.44;;;5.67;100.00
78373;BME280;67656;52.074;4.758;2023-04-29T23:26:01;102435.44;;;5.60;100.00
78373;BME280;67656;52.074;4.758;2023-04-29T23:31:01;102437.16;;;5.59;100.00
78373;BME280;67656;52.074;4.758;2023-04-29T23:36:02;102445.91;;;5.60;100.00
78373;BME280;67656;52.074;4.758;2023-04-29T23:41:02;102453.16;;;5.73;100.00
78373;BME280;67656;52.074;4.758;2023-04-29T23:46:02;102460.88;;;5.67;100.00
78373;BME280;67656;52.074;4.758;2023-04-29T23:51:03;102461.72;;;5.66;100.00
78373;BME280;67656;52.074;4.758;2023-04-29T23:56:04;102449.47;;;5.65;100.00
